sensor_id;sensor_type;location;lat;lon;timestamp;P1;durP1;ratioP1;P2;durP2;ratioP2
48993;SDS011;34804;49.214;12.276;2023-02-01T00:01:09;9.15;;;4.88;;
48993;SDS011;34804;49.214;12.276;2023-02-01T00:03:36;9.50;;;4.68;;
48993;SDS011;34804;49.214;12.276;2023-02-01T00:06:03;8.63;;;4.53;;
48993;SDS011;34804;49.214;12.276;2023-02-01T00:08:30;8.98;;;4.85;;
48993;SDS011;34804;49.214;12.276;2023-02-01T00:10:58;8.77;;;4.75;;
48993;SDS011;34804;49.214;12.276;2023-02-01T00:13:33;11.05;;;5.15;;
48993;SDS011;34804;49.214;12.276;2023-02-01T00:16:02;9.13;;;5.30;;
48993;SDS011;34804;49.214;12.276;2023-02-01T00:18:34;10.27;;;5.05;;
48993;SDS011;34804;49.214;12.276;2023-02-01T00:21:02;7.95;;;4.38;;
48993;SDS011;34804;49.214;12.276;2023-02-01T00:23:31;8.15;;;4.78;;
48993;SDS011;34804;49.214;12.276;2023-02-01T00:26:01;8.77;;;4.60;;
48993;SDS011;34804;49.214;12.276;2023-02-01T00:28:29;8.88;;;4.68;;
48993;SDS011;34804;49.214;12.276;2023-02-01T00:30:57;10.13;;;4.72;;
48993;SDS011;34804;49.214;12.276;2023-02-01T00:33:29;8.25;;;4.18;;
48993;SDS011;34804;49.214;12.276;2023-02-01T00:35:58;7.72;;;3.63;;
48993;SDS011;34804;49.214;12.276;2023-02-01T00:38:27;7.15;;;4.22;;
48993;SDS011;34804;49.214;12.276;2023-02-01T00:40:56;7.38;;;3.60;;
48993;SDS011;34804;49.214;12.276;2023-02-01T00:43:32;7.18;;;3.97;;
48993;SDS011;34804;49.214;12.276;2023-02-01T00:46:00;7.85;;;4.00;;
48993;SDS011;34804;49.214;12.276;2023-02-01T00:48:27;6.93;;;3.60;;
48993;SDS011;34804;49.214;12.276;2023-02-01T00:50:58;7.25;;;3.50;;
48993;SDS011;34804;49.214;12.276;2023-02-01T00:53:29;6.45;;;3.60;;
48993;SDS011;34804;49.214;12.276;2023-02-01T00:55:56;6.60;;;3.30;;
48993;SDS011;34804;49.214;12.276;2023-02-01T00:58:23;7.55;;;3.28;;
48993;SDS011;34804;49.214;12.276;2023-02-01T01:01:02;7.63;;;3.95;;
48993;SDS011;34804;49.214;12.276;2023-02-01T01:03:37;7.03;;;3.67;;
48993;SDS011;34804;49.214;12.276;2023-02-01T01:06:07;7.80;;;3.97;;
48993;SDS011;34804;49.214;12.276;2023-02-01T01:08:36;7.35;;;3.75;;
48993;SDS011;34804;49.214;12.276;2023-02-01T01:11:08;7.10;;;4.28;;
48993;SDS011;34804;49.214;12.276;2023-02-01T01:16:05;7.88;;;3.80;;
48993;SDS011;34804;49.214;12.276;2023-02-01T01:18:33;6.53;;;3.65;;
48993;SDS011;34804;49.214;12.276;2023-02-01T01:21:00;8.63;;;4.07;;
48993;SDS011;34804;49.214;12.276;2023-02-01T01:23:27;7.93;;;4.10;;
48993;SDS011;34804;49.214;12.276;2023-02-01T01:25:54;7.00;;;4.07;;
48993;SDS011;34804;49.214;12.276;2023-02-01T01:28:21;7.38;;;4.13;;
48993;SDS011;34804;49.214;12.276;2023-02-01T01:30:48;8.45;;;4.82;;
48993;SDS011;34804;49.214;12.276;2023-02-01T01:33:15;7.50;;;4.30;;
48993;SDS011;34804;49.214;12.276;2023-02-01T01:35:42;8.15;;;4.38;;
48993;SDS011;34804;49.214;12.276;2023-02-01T01:38:09;9.77;;;5.55;;
48993;SDS011;34804;49.214;12.276;2023-02-01T01:40:37;9.52;;;4.88;;
48993;SDS011;34804;49.214;12.276;2023-02-01T01:43:14;9.10;;;4.82;;
48993;SDS011;34804;49.214;12.276;2023-02-01T01:45:43;7.80;;;4.53;;
48993;SDS011;34804;49.214;12.276;2023-02-01T01:48:14;8.95;;;4.80;;
48993;SDS011;34804;49.214;12.276;2023-02-01T01:50:51;9.75;;;5.28;;
48993;SDS011;34804;49.214;12.276;2023-02-01T01:53:28;9.25;;;5.63;;
48993;SDS011;34804;49.214;12.276;2023-02-01T01:55:59;10.13;;;4.93;;
48993;SDS011;34804;49.214;12.276;2023-02-01T01:58:27;10.25;;;4.93;;
48993;SDS011;34804;49.214;12.276;2023-02-01T02:00:57;9.18;;;5.45;;
48993;SDS011;34804;49.214;12.276;2023-02-01T02:03:30;9.02;;;5.05;;
48993;SDS011;34804;49.214;12.276;2023-02-01T02:06:00;9.68;;;5.82;;
48993;SDS011;34804;49.214;12.276;2023-02-01T02:08:29;9.40;;;5.10;;
48993;SDS011;34804;49.214;12.276;2023-02-01T02:10:56;9.95;;;5.50;;
48993;SDS011;34804;49.214;12.276;2023-02-01T02:13:48;10.95;;;6.00;;
48993;SDS011;34804;49.214;12.276;2023-02-01T02:28:23;10.48;;;6.15;;
48993;SDS011;34804;49.214;12.276;2023-02-01T02:42:46;10.77;;;5.28;;
48993;SDS011;34804;49.214;12.276;2023-02-01T02:45:47;9.07;;;4.97;;
48993;SDS011;34804;49.214;12.276;2023-02-01T02:48:47;9.48;;;4.75;;
48993;SDS011;34804;49.214;12.276;2023-02-01T02:51:23;8.00;;;4.78;;
48993;SDS011;34804;49.214;12.276;2023-02-01T02:54:18;8.82;;;5.07;;
48993;SDS011;34804;49.214;12.276;2023-02-01T02:57:07;9.90;;;4.82;;
48993;SDS011;34804;49.214;12.276;2023-02-01T02:59:55;8.48;;;4.78;;
48993;SDS011;34804;49.214;12.276;2023-02-01T03:02:44;8.25;;;4.57;;
48993;SDS011;34804;49.214;12.276;2023-02-01T03:05:35;9.02;;;4.68;;
48993;SDS011;34804;49.214;12.276;2023-02-01T03:19:07;7.45;;;4.25;;
48993;SDS011;34804;49.214;12.276;2023-02-01T03:21:45;7.80;;;3.53;;
48993;SDS011;34804;49.214;12.276;2023-02-01T03:24:17;9.85;;;3.83;;
48993;SDS011;34804;49.214;12.276;2023-02-01T03:26:55;7.28;;;3.97;;
48993;SDS011;34804;49.214;12.276;2023-02-01T03:29:29;6.78;;;3.58;;
48993;SDS011;34804;49.214;12.276;2023-02-01T03:32:04;6.50;;;3.63;;
48993;SDS011;34804;49.214;12.276;2023-02-01T03:34:32;7.28;;;3.97;;
48993;SDS011;34804;49.214;12.276;2023-02-01T03:37:00;7.07;;;4.57;;
48993;SDS011;34804;49.214;12.276;2023-02-01T03:39:41;6.78;;;3.70;;
48993;SDS011;34804;49.214;12.276;2023-02-01T03:42:20;9.98;;;4.20;;
48993;SDS011;34804;49.214;12.276;2023-02-01T03:44:54;9.80;;;4.30;;
48993;SDS011;34804;49.214;12.276;2023-02-01T03:47:29;7.20;;;3.40;;
48993;SDS011;34804;49.214;12.276;2023-02-01T03:50:02;7.30;;;3.70;;
48993;SDS011;34804;49.214;12.276;2023-02-01T03:52:38;6.95;;;4.00;;
48993;SDS011;34804;49.214;12.276;2023-02-01T03:55:30;8.18;;;4.13;;
48993;SDS011;34804;49.214;12.276;2023-02-01T04:01:21;8.90;;;4.15;;
48993;SDS011;34804;49.214;12.276;2023-02-01T04:03:48;6.47;;;3.55;;
48993;SDS011;34804;49.214;12.276;2023-02-01T04:06:14;8.07;;;4.43;;
48993;SDS011;34804;49.214;12.276;2023-02-01T04:08:41;9.13;;;5.03;;
48993;SDS011;34804;49.214;12.276;2023-02-01T04:11:08;8.18;;;4.32;;
48993;SDS011;34804;49.214;12.276;2023-02-01T04:13:35;8.50;;;4.05;;
48993;SDS011;34804;49.214;12.276;2023-02-01T04:16:02;9.52;;;4.50;;
48993;SDS011;34804;49.214;12.276;2023-02-01T04:18:29;7.43;;;3.95;;
48993;SDS011;34804;49.214;12.276;2023-02-01T04:20:56;7.63;;;4.03;;
48993;SDS011;34804;49.214;12.276;2023-02-01T04:23:22;8.18;;;3.85;;
48993;SDS011;34804;49.214;12.276;2023-02-01T04:25:49;7.57;;;4.00;;
48993;SDS011;34804;49.214;12.276;2023-02-01T04:28:16;7.80;;;4.43;;
48993;SDS011;34804;49.214;12.276;2023-02-01T04:30:43;7.95;;;4.07;;
48993;SDS011;34804;49.214;12.276;2023-02-01T04:33:11;8.13;;;3.80;;
48993;SDS011;34804;49.214;12.276;2023-02-01T04:35:40;7.63;;;4.22;;
48993;SDS011;34804;49.214;12.276;2023-02-01T04:38:07;9.05;;;4.80;;
48993;SDS011;34804;49.214;12.276;2023-02-01T04:40:33;7.72;;;4.03;;
48993;SDS011;34804;49.214;12.276;2023-02-01T04:43:00;8.82;;;4.97;;
48993;SDS011;34804;49.214;12.276;2023-02-01T04:45:27;8.75;;;4.60;;
48993;SDS011;34804;49.214;12.276;2023-02-01T04:47:54;8.95;;;4.93;;
48993;SDS011;34804;49.214;12.276;2023-02-01T04:50:21;8.23;;;4.55;;
48993;SDS011;34804;49.214;12.276;2023-02-01T04:52:48;8.50;;;4.88;;
48993;SDS011;34804;49.214;12.276;2023-02-01T04:55:15;11.63;;;5.22;;
48993;SDS011;34804;49.214;12.276;2023-02-01T04:57:42;11.63;;;4.90;;
48993;SDS011;34804;49.214;12.276;2023-02-01T05:00:09;9.75;;;5.47;;
48993;SDS011;34804;49.214;12.276;2023-02-01T05:02:36;9.77;;;5.22;;
48993;SDS011;34804;49.214;12.276;2023-02-01T05:05:04;9.65;;;5.32;;
48993;SDS011;34804;49.214;12.276;2023-02-01T05:07:31;9.70;;;5.53;;
48993;SDS011;34804;49.214;12.276;2023-02-01T05:09:58;10.80;;;5.53;;
48993;SDS011;34804;49.214;12.276;2023-02-01T05:12:24;11.40;;;5.60;;
48993;SDS011;34804;49.214;12.276;2023-02-01T05:15:10;12.40;;;5.88;;
48993;SDS011;34804;49.214;12.276;2023-02-01T05:17:36;11.48;;;5.90;;
48993;SDS011;34804;49.214;12.276;2023-02-01T05:20:03;9.88;;;5.40;;
48993;SDS011;34804;49.214;12.276;2023-02-01T05:22:30;9.82;;;6.18;;
48993;SDS011;34804;49.214;12.276;2023-02-01T05:24:57;9.95;;;5.63;;
48993;SDS011;34804;49.214;12.276;2023-02-01T05:27:24;8.55;;;4.97;;
48993;SDS011;34804;49.214;12.276;2023-02-01T05:29:51;10.68;;;5.35;;
48993;SDS011;34804;49.214;12.276;2023-02-01T05:32:17;10.10;;;5.75;;
48993;SDS011;34804;49.214;12.276;2023-02-01T05:34:48;11.05;;;5.80;;
48993;SDS011;34804;49.214;12.276;2023-02-01T05:37:15;8.48;;;4.72;;
48993;SDS011;34804;49.214;12.276;2023-02-01T05:39:42;9.02;;;4.95;;
48993;SDS011;34804;49.214;12.276;2023-02-01T05:42:09;8.50;;;4.53;;
48993;SDS011;34804;49.214;12.276;2023-02-01T05:44:35;11.90;;;5.30;;
48993;SDS011;34804;49.214;12.276;2023-02-01T05:47:02;7.38;;;4.47;;
48993;SDS011;34804;49.214;12.276;2023-02-01T05:49:29;9.65;;;4.97;;
48993;SDS011;34804;49.214;12.276;2023-02-01T05:51:56;8.38;;;4.45;;
48993;SDS011;34804;49.214;12.276;2023-02-01T05:54:25;8.27;;;4.97;;
48993;SDS011;34804;49.214;12.276;2023-02-01T05:56:52;7.97;;;4.50;;
48993;SDS011;34804;49.214;12.276;2023-02-01T05:59:19;8.57;;;4.47;;
48993;SDS011;34804;49.214;12.276;2023-02-01T06:01:46;8.32;;;4.32;;
48993;SDS011;34804;49.214;12.276;2023-02-01T06:04:13;11.32;;;4.85;;
48993;SDS011;34804;49.214;12.276;2023-02-01T06:06:40;7.07;;;4.07;;
48993;SDS011;34804;49.214;12.276;2023-02-01T06:09:06;9.35;;;5.07;;
48993;SDS011;34804;49.214;12.276;2023-02-01T06:11:33;9.60;;;4.22;;
48993;SDS011;34804;49.214;12.276;2023-02-01T06:14:00;7.38;;;3.90;;
48993;SDS011;34804;49.214;12.276;2023-02-01T06:16:27;9.07;;;4.22;;
48993;SDS011;34804;49.214;12.276;2023-02-01T06:18:54;6.80;;;4.15;;
48993;SDS011;34804;49.214;12.276;2023-02-01T06:21:21;7.47;;;4.15;;
48993;SDS011;34804;49.214;12.276;2023-02-01T06:23:51;8.32;;;3.67;;
48993;SDS011;34804;49.214;12.276;2023-02-01T06:26:23;8.00;;;3.97;;
48993;SDS011;34804;49.214;12.276;2023-02-01T06:28:50;7.72;;;4.15;;
48993;SDS011;34804;49.214;12.276;2023-02-01T06:31:17;6.43;;;3.55;;
48993;SDS011;34804;49.214;12.276;2023-02-01T06:33:44;7.68;;;3.70;;
48993;SDS011;34804;49.214;12.276;2023-02-01T06:36:13;8.80;;;4.05;;
48993;SDS011;34804;49.214;12.276;2023-02-01T06:38:39;7.78;;;3.60;;
48993;SDS011;34804;49.214;12.276;2023-02-01T06:41:06;7.15;;;3.17;;
48993;SDS011;34804;49.214;12.276;2023-02-01T06:43:33;6.07;;;2.80;;
48993;SDS011;34804;49.214;12.276;2023-02-01T06:46:04;7.22;;;2.88;;
48993;SDS011;34804;49.214;12.276;2023-02-01T06:48:33;6.67;;;2.70;;
48993;SDS011;34804;49.214;12.276;2023-02-01T06:51:00;7.97;;;2.13;;
48993;SDS011;34804;49.214;12.276;2023-02-01T06:53:27;11.23;;;2.42;;
48993;SDS011;34804;49.214;12.276;2023-02-01T06:55:54;10.95;;;2.50;;
48993;SDS011;34804;49.214;12.276;2023-02-01T06:58:22;8.65;;;2.60;;
48993;SDS011;34804;49.214;12.276;2023-02-01T07:00:50;9.43;;;2.53;;
48993;SDS011;34804;49.214;12.276;2023-02-01T07:03:17;10.10;;;2.70;;
48993;SDS011;34804;49.214;12.276;2023-02-01T07:05:43;13.32;;;2.35;;
48993;SDS011;34804;49.214;12.276;2023-02-01T07:08:10;5.32;;;1.58;;
48993;SDS011;34804;49.214;12.276;2023-02-01T07:10:37;6.55;;;1.23;;
48993;SDS011;34804;49.214;12.276;2023-02-01T07:13:04;3.17;;;1.33;;
48993;SDS011;34804;49.214;12.276;2023-02-01T07:15:31;5.40;;;1.25;;
48993;SDS011;34804;49.214;12.276;2023-02-01T07:17:58;5.55;;;2.35;;
48993;SDS011;34804;49.214;12.276;2023-02-01T07:20:25;3.90;;;1.40;;
48993;SDS011;34804;49.214;12.276;2023-02-01T07:22:55;4.10;;;1.40;;
48993;SDS011;34804;49.214;12.276;2023-02-01T07:25:23;4.68;;;1.50;;
48993;SDS011;34804;49.214;12.276;2023-02-01T07:27:50;4.35;;;1.60;;
48993;SDS011;34804;49.214;12.276;2023-02-01T07:30:17;3.28;;;1.20;;
48993;SDS011;34804;49.214;12.276;2023-02-01T07:32:44;3.38;;;1.02;;
48993;SDS011;34804;49.214;12.276;2023-02-01T07:35:11;5.40;;;1.23;;
48993;SDS011;34804;49.214;12.276;2023-02-01T07:37:38;1.77;;;0.90;;
48993;SDS011;34804;49.214;12.276;2023-02-01T07:40:04;2.65;;;1.25;;
48993;SDS011;34804;49.214;12.276;2023-02-01T07:42:32;3.85;;;1.40;;
48993;SDS011;34804;49.214;12.276;2023-02-01T07:45:00;2.60;;;0.90;;
48993;SDS011;34804;49.214;12.276;2023-02-01T07:47:46;1.40;;;0.80;;
48993;SDS011;34804;49.214;12.276;2023-02-01T07:50:13;2.92;;;0.95;;
48993;SDS011;34804;49.214;12.276;2023-02-01T07:52:40;2.83;;;0.77;;
48993;SDS011;34804;49.214;12.276;2023-02-01T07:55:07;2.15;;;0.88;;
48993;SDS011;34804;49.214;12.276;2023-02-01T07:57:34;3.00;;;1.08;;
48993;SDS011;34804;49.214;12.276;2023-02-01T08:00:01;2.40;;;0.90;;
48993;SDS011;34804;49.214;12.276;2023-02-01T08:02:48;2.60;;;0.90;;
48993;SDS011;34804;49.214;12.276;2023-02-01T08:05:15;2.95;;;1.08;;
48993;SDS011;34804;49.214;12.276;2023-02-01T08:07:41;2.38;;;1.10;;
48993;SDS011;34804;49.214;12.276;2023-02-01T08:10:08;2.67;;;1.27;;
48993;SDS011;34804;49.214;12.276;2023-02-01T08:12:37;3.47;;;1.50;;
48993;SDS011;34804;49.214;12.276;2023-02-01T08:15:04;3.40;;;1.60;;
48993;SDS011;34804;49.214;12.276;2023-02-01T08:17:31;4.70;;;2.10;;
48993;SDS011;34804;49.214;12.276;2023-02-01T08:19:58;4.47;;;2.17;;
48993;SDS011;34804;49.214;12.276;2023-02-01T08:22:25;4.47;;;2.17;;
48993;SDS011;34804;49.214;12.276;2023-02-01T08:24:52;5.25;;;2.40;;
48993;SDS011;34804;49.214;12.276;2023-02-01T08:27:27;5.50;;;2.20;;
48993;SDS011;34804;49.214;12.276;2023-02-01T08:29:54;6.88;;;2.80;;
48993;SDS011;34804;49.214;12.276;2023-02-01T08:32:21;5.60;;;2.70;;
48993;SDS011;34804;49.214;12.276;2023-02-01T08:34:48;5.45;;;3.00;;
48993;SDS011;34804;49.214;12.276;2023-02-01T08:37:15;5.88;;;2.63;;
48993;SDS011;34804;49.214;12.276;2023-02-01T08:39:41;7.00;;;3.03;;
48993;SDS011;34804;49.214;12.276;2023-02-01T08:42:13;7.78;;;3.38;;
48993;SDS011;34804;49.214;12.276;2023-02-01T08:44:58;8.75;;;3.50;;
48993;SDS011;34804;49.214;12.276;2023-02-01T08:47:25;7.22;;;3.13;;
48993;SDS011;34804;49.214;12.276;2023-02-01T08:49:52;6.82;;;3.17;;
48993;SDS011;34804;49.214;12.276;2023-02-01T08:52:19;6.18;;;3.47;;
48993;SDS011;34804;49.214;12.276;2023-02-01T08:54:46;8.05;;;3.58;;
48993;SDS011;34804;49.214;12.276;2023-02-01T08:57:13;6.75;;;3.10;;
48993;SDS011;34804;49.214;12.276;2023-02-01T08:59:40;6.45;;;3.10;;
48993;SDS011;34804;49.214;12.276;2023-02-01T09:02:08;8.45;;;3.38;;
48993;SDS011;34804;49.214;12.276;2023-02-01T09:04:39;7.35;;;3.15;;
48993;SDS011;34804;49.214;12.276;2023-02-01T09:07:06;7.07;;;3.92;;
48993;SDS011;34804;49.214;12.276;2023-02-01T09:09:36;7.68;;;3.47;;
48993;SDS011;34804;49.214;12.276;2023-02-01T09:12:03;6.90;;;3.42;;
48993;SDS011;34804;49.214;12.276;2023-02-01T09:14:30;9.25;;;3.10;;
48993;SDS011;34804;49.214;12.276;2023-02-01T09:16:57;8.73;;;3.20;;
48993;SDS011;34804;49.214;12.276;2023-02-01T09:19:24;8.95;;;3.13;;
48993;SDS011;34804;49.214;12.276;2023-02-01T09:21:52;9.57;;;3.90;;
48993;SDS011;34804;49.214;12.276;2023-02-01T09:24:19;9.52;;;3.28;;
48993;SDS011;34804;49.214;12.276;2023-02-01T09:26:46;8.00;;;3.25;;
48993;SDS011;34804;49.214;12.276;2023-02-01T09:29:12;8.27;;;3.05;;
48993;SDS011;34804;49.214;12.276;2023-02-01T09:31:40;9.13;;;3.67;;
48993;SDS011;34804;49.214;12.276;2023-02-01T09:34:22;8.15;;;3.17;;
48993;SDS011;34804;49.214;12.276;2023-02-01T09:36:49;8.32;;;2.65;;
48993;SDS011;34804;49.214;12.276;2023-02-01T09:39:16;10.13;;;3.60;;
48993;SDS011;34804;49.214;12.276;2023-02-01T09:44:36;8.13;;;3.28;;
48993;SDS011;34804;49.214;12.276;2023-02-01T09:47:13;8.82;;;2.88;;
48993;SDS011;34804;49.214;12.276;2023-02-01T09:49:50;11.60;;;3.28;;
48993;SDS011;34804;49.214;12.276;2023-02-01T09:52:35;7.18;;;2.50;;
48993;SDS011;34804;49.214;12.276;2023-02-01T09:55:37;6.32;;;2.75;;
48993;SDS011;34804;49.214;12.276;2023-02-01T09:58:09;9.35;;;2.92;;
48993;SDS011;34804;49.214;12.276;2023-02-01T10:00:53;8.88;;;3.42;;
48993;SDS011;34804;49.214;12.276;2023-02-01T10:03:24;10.05;;;2.75;;
48993;SDS011;34804;49.214;12.276;2023-02-01T10:05:56;7.50;;;2.50;;
48993;SDS011;34804;49.214;12.276;2023-02-01T10:19:32;6.55;;;2.60;;
48993;SDS011;34804;49.214;12.276;2023-02-01T10:22:23;12.23;;;3.60;;
48993;SDS011;34804;49.214;12.276;2023-02-01T10:25:31;8.85;;;2.83;;
48993;SDS011;34804;49.214;12.276;2023-02-01T10:28:13;8.90;;;3.30;;
48993;SDS011;34804;49.214;12.276;2023-02-01T10:30:44;10.73;;;2.90;;
48993;SDS011;34804;49.214;12.276;2023-02-01T10:33:23;6.38;;;2.67;;
48993;SDS011;34804;49.214;12.276;2023-02-01T10:35:53;10.40;;;3.05;;
48993;SDS011;34804;49.214;12.276;2023-02-01T10:38:36;7.32;;;2.42;;
48993;SDS011;34804;49.214;12.276;2023-02-01T10:41:08;5.20;;;2.05;;
48993;SDS011;34804;49.214;12.276;2023-02-01T10:43:54;5.20;;;2.42;;
48993;SDS011;34804;49.214;12.276;2023-02-01T10:46:25;5.07;;;2.65;;
48993;SDS011;34804;49.214;12.276;2023-02-01T10:48:53;4.90;;;2.00;;
48993;SDS011;34804;49.214;12.276;2023-02-01T10:51:26;7.03;;;2.20;;
48993;SDS011;34804;49.214;12.276;2023-02-01T10:54:08;7.05;;;2.33;;
48993;SDS011;34804;49.214;12.276;2023-02-01T10:56:43;6.22;;;2.25;;
48993;SDS011;34804;49.214;12.276;2023-02-01T10:59:21;3.67;;;1.75;;
48993;SDS011;34804;49.214;12.276;2023-02-01T11:01:57;5.65;;;2.05;;
48993;SDS011;34804;49.214;12.276;2023-02-01T11:04:27;6.68;;;1.98;;
48993;SDS011;34804;49.214;12.276;2023-02-01T11:07:13;7.65;;;2.13;;
48993;SDS011;34804;49.214;12.276;2023-02-01T11:09:49;7.70;;;2.30;;
48993;SDS011;34804;49.214;12.276;2023-02-01T11:12:28;6.22;;;1.70;;
48993;SDS011;34804;49.214;12.276;2023-02-01T11:17:45;6.65;;;1.88;;
48993;SDS011;34804;49.214;12.276;2023-02-01T11:20:17;6.38;;;2.03;;
48993;SDS011;34804;49.214;12.276;2023-02-01T11:22:53;7.70;;;2.00;;
48993;SDS011;34804;49.214;12.276;2023-02-01T11:25:22;6.10;;;1.90;;
48993;SDS011;34804;49.214;12.276;2023-02-01T11:27:51;8.32;;;2.20;;
48993;SDS011;34804;49.214;12.276;2023-02-01T11:30:40;7.60;;;2.25;;
48993;SDS011;34804;49.214;12.276;2023-02-01T11:33:13;9.52;;;2.28;;
48993;SDS011;34804;49.214;12.276;2023-02-01T11:35:43;6.32;;;2.30;;
48993;SDS011;34804;49.214;12.276;2023-02-01T11:38:28;5.32;;;1.95;;
48993;SDS011;34804;49.214;12.276;2023-02-01T11:41:19;10.75;;;2.30;;
48993;SDS011;34804;49.214;12.276;2023-02-01T11:43:52;9.68;;;2.47;;
48993;SDS011;34804;49.214;12.276;2023-02-01T11:46:27;9.18;;;2.30;;
48993;SDS011;34804;49.214;12.276;2023-02-01T11:48:57;8.73;;;3.08;;
48993;SDS011;34804;49.214;12.276;2023-02-01T12:07:57;11.85;;;3.10;;
48993;SDS011;34804;49.214;12.276;2023-02-01T12:16:15;10.45;;;3.33;;
48993;SDS011;34804;49.214;12.276;2023-02-01T12:18:46;11.13;;;2.55;;
48993;SDS011;34804;49.214;12.276;2023-02-01T12:21:52;8.05;;;2.50;;
48993;SDS011;34804;49.214;12.276;2023-02-01T12:35:44;11.07;;;3.05;;
48993;SDS011;34804;49.214;12.276;2023-02-01T12:38:24;7.85;;;2.35;;
48993;SDS011;34804;49.214;12.276;2023-02-01T12:41:20;10.32;;;2.88;;
48993;SDS011;34804;49.214;12.276;2023-02-01T12:44:08;12.00;;;2.75;;
48993;SDS011;34804;49.214;12.276;2023-02-01T12:46:47;12.05;;;2.80;;
48993;SDS011;34804;49.214;12.276;2023-02-01T12:49:23;12.03;;;2.70;;
48993;SDS011;34804;49.214;12.276;2023-02-01T12:52:01;10.05;;;3.22;;
48993;SDS011;34804;49.214;12.276;2023-02-01T12:57:30;11.18;;;3.10;;
48993;SDS011;34804;49.214;12.276;2023-02-01T13:00:05;12.50;;;2.72;;
48993;SDS011;34804;49.214;12.276;2023-02-01T13:02:44;9.90;;;2.63;;
48993;SDS011;34804;49.214;12.276;2023-02-01T13:05:17;6.82;;;2.67;;
48993;SDS011;34804;49.214;12.276;2023-02-01T13:15:56;8.07;;;2.88;;
48993;SDS011;34804;49.214;12.276;2023-02-01T13:18:32;8.75;;;2.00;;
48993;SDS011;34804;49.214;12.276;2023-02-01T13:21:20;7.70;;;2.30;;
48993;SDS011;34804;49.214;12.276;2023-02-01T13:23:50;5.30;;;2.00;;
48993;SDS011;34804;49.214;12.276;2023-02-01T13:26:18;7.03;;;2.22;;
48993;SDS011;34804;49.214;12.276;2023-02-01T13:31:21;7.18;;;2.20;;
48993;SDS011;34804;49.214;12.276;2023-02-01T13:42:26;5.90;;;2.00;;
48993;SDS011;34804;49.214;12.276;2023-02-01T13:45:03;7.18;;;1.67;;
48993;SDS011;34804;49.214;12.276;2023-02-01T13:47:43;5.10;;;1.77;;
48993;SDS011;34804;49.214;12.276;2023-02-01T13:50:19;5.60;;;1.77;;
48993;SDS011;34804;49.214;12.276;2023-02-01T13:52:56;7.25;;;1.92;;
48993;SDS011;34804;49.214;12.276;2023-02-01T13:55:37;9.18;;;2.28;;
48993;SDS011;34804;49.214;12.276;2023-02-01T13:58:19;8.30;;;1.88;;
48993;SDS011;34804;49.214;12.276;2023-02-01T14:00:48;6.20;;;1.73;;
48993;SDS011;34804;49.214;12.276;2023-02-01T14:03:21;6.80;;;2.28;;
48993;SDS011;34804;49.214;12.276;2023-02-01T14:08:23;10.27;;;2.35;;
48993;SDS011;34804;49.214;12.276;2023-02-01T14:11:07;8.57;;;2.30;;
48993;SDS011;34804;49.214;12.276;2023-02-01T14:16:43;6.63;;;1.95;;
48993;SDS011;34804;49.214;12.276;2023-02-01T14:24:53;12.38;;;2.13;;
48993;SDS011;34804;49.214;12.276;2023-02-01T14:27:26;11.50;;;1.95;;
48993;SDS011;34804;49.214;12.276;2023-02-01T14:29:57;7.85;;;2.13;;
48993;SDS011;34804;49.214;12.276;2023-02-01T14:32:31;6.30;;;1.95;;
48993;SDS011;34804;49.214;12.276;2023-02-01T14:35:12;10.73;;;3.15;;
48993;SDS011;34804;49.214;12.276;2023-02-01T14:37:52;7.55;;;2.00;;
48993;SDS011;34804;49.214;12.276;2023-02-01T14:40:25;10.10;;;2.22;;
48993;SDS011;34804;49.214;12.276;2023-02-01T14:42:54;6.50;;;2.30;;
48993;SDS011;34804;49.214;12.276;2023-02-01T14:48:40;9.07;;;2.42;;
48993;SDS011;34804;49.214;12.276;2023-02-01T14:51:03;7.28;;;2.65;;
48993;SDS011;34804;49.214;12.276;2023-02-01T14:53:33;7.45;;;2.13;;
48993;SDS011;34804;49.214;12.276;2023-02-01T14:58:38;9.30;;;2.55;;
48993;SDS011;34804;49.214;12.276;2023-02-01T15:01:26;9.43;;;2.60;;
48993;SDS011;34804;49.214;12.276;2023-02-01T15:06:46;7.63;;;2.45;;
48993;SDS011;34804;49.214;12.276;2023-02-01T15:09:35;9.35;;;2.50;;
48993;SDS011;34804;49.214;12.276;2023-02-01T15:14:41;7.43;;;2.00;;
48993;SDS011;34804;49.214;12.276;2023-02-01T15:17:25;10.63;;;3.25;;
48993;SDS011;34804;49.214;12.276;2023-02-01T15:19:54;9.00;;;2.22;;
48993;SDS011;34804;49.214;12.276;2023-02-01T15:22:26;9.43;;;2.50;;
48993;SDS011;34804;49.214;12.276;2023-02-01T15:24:55;12.55;;;2.78;;
48993;SDS011;34804;49.214;12.276;2023-02-01T15:27:23;11.07;;;3.22;;
48993;SDS011;34804;49.214;12.276;2023-02-01T15:29:51;11.75;;;2.83;;
48993;SDS011;34804;49.214;12.276;2023-02-01T15:32:29;14.20;;;2.55;;
48993;SDS011;34804;49.214;12.276;2023-02-01T15:34:57;12.90;;;3.13;;
48993;SDS011;34804;49.214;12.276;2023-02-01T15:37:27;7.65;;;2.20;;
48993;SDS011;34804;49.214;12.276;2023-02-01T15:42:33;9.30;;;2.22;;
48993;SDS011;34804;49.214;12.276;2023-02-01T15:45:01;12.80;;;2.40;;
48993;SDS011;34804;49.214;12.276;2023-02-01T15:47:28;6.53;;;2.20;;
48993;SDS011;34804;49.214;12.276;2023-02-01T15:49:57;14.30;;;2.55;;
48993;SDS011;34804;49.214;12.276;2023-02-01T15:52:36;9.50;;;2.45;;
48993;SDS011;34804;49.214;12.276;2023-02-01T15:55:05;7.60;;;1.83;;
48993;SDS011;34804;49.214;12.276;2023-02-01T15:57:35;10.20;;;2.28;;
48993;SDS011;34804;49.214;12.276;2023-02-01T16:00:06;10.32;;;2.40;;
48993;SDS011;34804;49.214;12.276;2023-02-01T16:02:58;10.50;;;2.15;;
48993;SDS011;34804;49.214;12.276;2023-02-01T16:05:40;10.02;;;1.90;;
48993;SDS011;34804;49.214;12.276;2023-02-01T16:08:10;9.05;;;1.65;;
48993;SDS011;34804;49.214;12.276;2023-02-01T16:10:50;8.13;;;2.35;;
48993;SDS011;34804;49.214;12.276;2023-02-01T16:13:19;8.40;;;2.13;;
48993;SDS011;34804;49.214;12.276;2023-02-01T16:15:47;8.57;;;1.80;;
48993;SDS011;34804;49.214;12.276;2023-02-01T16:18:17;10.10;;;2.45;;
48993;SDS011;34804;49.214;12.276;2023-02-01T16:20:44;8.70;;;2.38;;
48993;SDS011;34804;49.214;12.276;2023-02-01T16:23:13;7.35;;;1.95;;
48993;SDS011;34804;49.214;12.276;2023-02-01T16:25:40;7.47;;;2.10;;
48993;SDS011;34804;49.214;12.276;2023-02-01T16:28:07;7.80;;;1.90;;
48993;SDS011;34804;49.214;12.276;2023-02-01T16:30:34;8.55;;;1.98;;
48993;SDS011;34804;49.214;12.276;2023-02-01T16:33:02;6.93;;;2.08;;
48993;SDS011;34804;49.214;12.276;2023-02-01T16:35:33;9.07;;;1.70;;
48993;SDS011;34804;49.214;12.276;2023-02-01T16:38:05;10.32;;;1.88;;
48993;SDS011;34804;49.214;12.276;2023-02-01T16:40:42;8.50;;;2.05;;
48993;SDS011;34804;49.214;12.276;2023-02-01T16:43:13;9.77;;;1.70;;
48993;SDS011;34804;49.214;12.276;2023-02-01T16:45:46;9.35;;;2.10;;
48993;SDS011;34804;49.214;12.276;2023-02-01T16:48:19;11.13;;;2.72;;
48993;SDS011;34804;49.214;12.276;2023-02-01T16:50:51;15.35;;;2.55;;
48993;SDS011;34804;49.214;12.276;2023-02-01T16:53:21;15.20;;;2.65;;
48993;SDS011;34804;49.214;12.276;2023-02-01T16:55:49;9.27;;;2.03;;
48993;SDS011;34804;49.214;12.276;2023-02-01T16:58:16;8.20;;;2.05;;
48993;SDS011;34804;49.214;12.276;2023-02-01T17:00:43;10.45;;;2.08;;
48993;SDS011;34804;49.214;12.276;2023-02-01T17:03:11;8.60;;;2.10;;
48993;SDS011;34804;49.214;12.276;2023-02-01T17:05:47;7.95;;;1.98;;
48993;SDS011;34804;49.214;12.276;2023-02-01T17:08:18;9.32;;;1.88;;
48993;SDS011;34804;49.214;12.276;2023-02-01T17:10:50;9.57;;;2.03;;
48993;SDS011;34804;49.214;12.276;2023-02-01T17:13:17;8.90;;;2.00;;
48993;SDS011;34804;49.214;12.276;2023-02-01T17:15:46;10.95;;;2.58;;
48993;SDS011;34804;49.214;12.276;2023-02-01T17:18:17;7.45;;;1.77;;